Don's Testing Zone


Current Conditions
weather data
source:

National Weather Service
Light Rain Russellville, AR
Light Rain, 59°F
Sunday, October 22, 2017 4:09 AM CDT
Temperature: 59°F/15°C
Humidity: 94%
Barometer: 29.98in/1014.9mb Barometer Steady
Wind: W at 6mph/9kmh
View other cities:
Searcy | Little Rock | Hot Springs | Russellville | More...
Astronomical Conditions (Clear Sky Clock)
Searcy Clear Sky Clock
    

Radar Images

NWS
    Wx Underground

NWS METAR weather data

ADDS - METARS form results





Aviation Digital Data Service (ADDS) Output produced by METARs form (0945 UTC 22 October 2017) found at http://www.aviationweather.gov/adds/metars/ 

KRUE 220909Z AUTO 28005KT 10SM -RA BKN095 OVC120 15/14 A2998 RMK AO2 LTG DSNT EAND W T01500144 PNO $

KRUE 220853Z AUTO 26004KT 8SM VCTS -RA OVC090 15/14 A2999 RMK AO2 LTG DSNT ALQDSTSE10 SLP149 6//// T01500144 53035 PNO $

KRUE 220811Z AUTO 35012G22KT 3SM VCTS +RA BR BKN038 BKN050 OVC090 15/14 A2996RMK AO2 LTG DSNT ALQDS TSE10 T01500139 PNO $

KRUE 220753Z AUTO 32013G31KT 2SM +TSRA BR FEW023 BKN033 OVC055 15/14 A2998 RMKAO2 PK WND 28043/0733 WSHFT 0730 LTG DSNT ALQDS RAB37 TSB43 SLP146 T01500144 PNO$

KRUE 220744Z AUTO 31019G39KT 3SM +TSRA BR FEW021 BKN031 OVC050 16/14 A2997 RMKAO2 PK WND 28043/0733 WSHFT 0730 LTG DSNT SW-N RAB37 TSB43 P0000 T01610139

KRUE 220741Z AUTO 30017G43KT 4SM VCTS RA FEW020 BKN031 OVC041 17/14 A2997 RMKAO2 PK WND 28043/0733 LTG DSNT SW-N RAB37 P0000 T01670139

KRUE 220732Z AUTO 27032G43KT 9SM SQ BKN029 BKN037 OVC095 24/19 A2997 RMK AO2 PKWND 27043/0732 LTG DSNT SW-N PRESRR T02440189

KRUE 220728Z AUTO 21008G21KT 10SM BKN029 OVC037 25/20 A2991 RMK AO2 LTG DSNTSW-N PRESRR T02500200

KRUE 220718Z AUTO 19011G22KT 10SM OVC030 25/20 A2989 RMK AO2 LTG DSNT W AND NWT02500200

KRUE 220653Z AUTO 19009G16KT 10SM BKN029 OVC036 24/20 A2989 RMK AO2 LTG DSNT NSLP113 T02440200

KRUE 220553Z AUTO 18007KT 10SM BKN028 BKN032 24/21 A2989 RMK AO2 SLP113 60000T02390206 10244 20222 402500161 56018

KRUE 220543Z AUTO 16007KT 10SM BKN030 24/21 A2989 RMK AO2 T02390206

KRUE 220502Z AUTO 16008G18KT 10SM BKN028 BKN034 BKN041 24/20 A2992 RMK AO2T02440200

KRUE 220453Z AUTO VRB06KT 10SM SCT028 BKN039 24/20 A2993 RMK AO2 SLP128T02440200

KRUE 220436Z AUTO 15005KT 10SM SCT028 BKN039 24/21 A2993 RMK AO2 T02390206

KRUE 220424Z AUTO 13004KT 10SM BKN028 23/21 A2993 RMK AO2 T02330206

KRUE 220353Z AUTO 13005KT 10SM SCT036 24/21 A2994 RMK AO2 SLP131 T02390206

KRUE 220253Z AUTO VRB04KT 10SM FEW046 24/21 A2992 RMK AO2 RAB20E30 SLP125 P000060000 T02390206 58004

KRUE 220153Z AUTO 12005KT 10SM CLR 23/21 A2993 RMK AO2 SLP128 T02330206

KRUE 220053Z AUTO VRB04KT 10SM CLR 22/20 A2994 RMK AO2 SLP131 T02220200

KRUE 212353Z AUTO 08005KT 10SM CLR 23/20 A2993 RMK AO2 SLP130 T02280200 1025020217 56009

KRUE 212253Z AUTO 11005KT 10SM FEW032 SCT070 24/20 A2993 RMK AO2 SLP130T02440200

KRUE 212153Z AUTO 12003KT 10SM SCT031 OVC045 25/20 A2995 RMK AO2 SLP136T02500200

KRUE 212053Z AUTO VRB05KT 10SM BKN035 OVC044 24/20 A2996 RMK AO2 SLP139T02440200 58009

KRUE 212028Z AUTO 15007KT 10SM FEW020 SCT026 OVC036 24/20 A2997 RMK AO2T02390200

KRUE 211953Z AUTO VRB06KT 10SM BKN019 24/20 A2997 RMK AO2 SLP142 T02440200

KRUE 211853Z AUTO VRB05KT 10SM OVC015 23/19 A2999 RMK AO2 SLP148 T02280194

KRUE 211851Z AUTO VRB05KT 10SM OVC015 23/19 A2999 RMK AO2

KRUE 211753Z AUTO 13003KT 8SM OVC013 22/19 A3002 RMK AO2 SLP158 T02170194 1021720183 58007

KRUE 211723Z AUTO VRB04KT 10SM OVC014 22/19 A3003 RMK AO2 T02170194

KRUE 211653Z AUTO VRB06KT 10SM OVC021 22/19 A3003 RMK AO2 SLP163 T02170194

KRUE 211641Z AUTO VRB04KT 9SM FEW013 OVC023 22/19 A3003 RMK AO2 T02170194

KRUE 211615Z AUTO 00000KT 10SM OVC014 21/19 A3004 RMK AO2 T02110189

KRUE 211553Z AUTO VRB03KT 10SM OVC018 22/18 A3004 RMK AO2 SLP164 T02170183

KRUE 211538Z AUTO VRB04KT 10SM OVC017 21/18 A3003 RMK AO2 T02110183

KRUE 211453Z AUTO 08004KT 10SM OVC014 20/18 A3004 RMK AO2 SLP164 T02000178 53007

KRUE 211353Z AUTO VRB06KT 10SM OVC017 19/17 A3002 RMK AO2 SLP158 T01940167

KRUE 211253Z AUTO 11006KT 10SM BKN021 BKN085 18/16 A3000 RMK AO2 SLP153T01830156

KRUE 211242Z AUTO 11007KT 10SM BKN021 OVC085 18/16 A3000 RMK AO2 T01830156

KRUE 211225Z AUTO 10006KT 10SM SCT021 OVC085 18/16 A3000 RMK AO2 T01830156

KRUE 211203Z AUTO 10006KT 10SM BKN021 OVC090 18/16 A3001 RMK AO2 T01830156

KRUE 211153Z AUTO 10006KT 10SM SCT022 OVC090 18/16 A3001 RMK AO2 SLP157T01830156 10183 20161 57001

KRUE 211115Z AUTO VRB03KT 10SM SCT024 BKN050 OVC085 18/15 A3001 RMK AO2T01830150

KRUE 211053Z AUTO 10003KT 10SM BKN024 OVC080 18/15 A3002 RMK AO2 SLP158T01830150

KRUE 211044Z AUTO 00000KT 10SM BKN024 OVC080 18/14 A3002 RMK AO2 T01830144

KRUE 210953Z AUTO 00000KT 10SM FEW055 OVC080 16/15 A3001 RMK AO2 SLP156T01610150